Bookmark and Share
Track history (hours):
 

Sheng Jia 1

Last reported at 2014-Apr-19 21:33 UTC. Time now 2014-Apr-19 22:20 UTC.
Position N 35°32' E 140°06'.

Length 72 m; draft 3.4 m.

Type: Cargo ship. MMSI: 515744000.

NotesDate/timePositionNaut miles runAvg speedWind from/ knotsBaromVisibWave heightAir tempDewpointWater temp
2014-Apr-19 21:33N 35°32' E 140°06'3 3.5
2014-Apr-19 20:33N 35°33' E 140°02'0 0.1
2014-Apr-19 19:28N 35°33' E 140°02'0 0.0
2014-Apr-19 18:31N 35°33' E 140°02'0 0.0
2014-Apr-19 17:31N 35°33' E 140°02'0 0.0
2014-Apr-19 16:22N 35°33' E 140°02'0 0.0
2014-Apr-19 15:31N 35°33' E 140°02'0 0.0
2014-Apr-19 14:19N 35°33' E 140°02'0 0.0
2014-Apr-19 13:25N 35°33' E 140°02'0 0.0
2014-Apr-19 12:28N 35°33' E 140°02'0 0.0
2014-Apr-19 11:31N 35°33' E 140°02'0 0.0
2014-Apr-19 10:28N 35°33' E 140°02'0 0.1
2014-Apr-19 09:31N 35°33' E 140°02'7 7.5
2014-Apr-19 08:33N 35°30' E 139°54'9 9.2
2014-Apr-19 07:34N 35°23' E 139°46'9 8.9
2014-Apr-19 06:33N 35°14' E 139°47'8 8.4
2014-Apr-19 05:34N 35°07' E 139°43'9 8.9
2014-Apr-19 04:33N 35°00' E 139°35'10 9.3
2014-Apr-19 03:30N 34°54' E 139°26'  
2014-Apr-13 17:25N 35°59' E 120°30'8 8.7
2014-Apr-13 16:33N 36°01' E 120°21'4 0.6
2014-Apr-13 09:06N 36°03' E 120°16'5 8.3
2014-Apr-13 08:33N 36°01' E 120°22'3 2.8
2014-Apr-13 07:19N 35°59' E 120°25'5 6.3
2014-Apr-13 06:33N 35°60' E 120°30'  

Dump ship's entire track history

sailing weather and tide predictions

Sheng Jia 1 — XUGG7 — position and weather